Time;durP1;ratioP1;P1;durP2;ratioP2;P2;SDS_P1;SDS_P2;PMS_P1;PMS_P2;Temp;Humidity;BMP_temperature;BMP_pressure;BME280_temperature;BME280_humidity;BME280_pressure;Samples;Min_cycle;Max_cycle;Signal;HPM_P1;HPM_P2
2024/03/11 00:01:39;;;;;;;1.95;1.30;;;6.10;69.40;;;1.34;100.00;93997.00;5022249;28;20555;-49
2024/03/11 00:04:06;;;;;;;3.53;1.38;;;6.10;69.40;;;1.33;100.00;94005.13;5002568;28;20514;-51
2024/03/11 00:06:35;;;;;;;1.80;1.23;;;6.10;69.50;;;1.34;100.00;94011.94;5008374;28;20025;-50
2024/03/11 00:09:04;;;;;;;1.33;1.02;;;6.10;69.50;;;1.33;100.00;94011.16;5009359;28;20021;-48
2024/03/11 00:11:30;;;;;;;1.30;1.20;;;6.10;69.50;;;1.32;100.00;94011.41;5010254;28;20026;-48
2024/03/11 00:13:56;;;;;;;2.88;1.13;;;6.10;69.50;;;1.27;100.00;94008.72;5012431;28;20514;-50
2024/03/11 00:16:22;;;;;;;2.47;1.33;;;6.10;69.60;;;1.29;100.00;94015.31;5010962;28;20017;-49
2024/03/11 00:18:49;;;;;;;2.33;1.25;;;6.10;69.60;;;1.32;100.00;94020.06;5012342;28;20437;-53
2024/03/11 00:21:15;;;;;;;1.70;1.27;;;6.10;69.70;;;1.34;100.00;94020.59;5011925;28;20154;-49
2024/03/11 00:23:40;;;;;;;1.52;1.10;;;6.10;69.70;;;1.33;100.00;94021.66;5011391;28;20108;-50
2024/03/11 00:26:06;;;;;;;1.38;1.13;;;6.00;69.70;;;1.30;100.00;94021.34;5011879;28;20025;-50
2024/03/11 00:28:33;;;;;;;1.50;1.02;;;6.00;69.70;;;1.24;100.00;94032.81;5011460;28;20060;-52
2024/03/11 00:31:00;;;;;;;1.80;1.27;;;6.00;69.70;;;1.43;100.00;94034.09;5012302;28;20083;-51
2024/03/11 00:33:28;;;;;;;1.35;1.15;;;6.00;69.90;;;1.46;100.00;94023.09;5012122;28;20072;-53
2024/03/11 00:35:55;;;;;;;2.40;1.20;;;6.10;70.00;;;1.43;100.00;94025.44;5011604;28;20024;-50
2024/03/11 00:38:21;;;;;;;1.55;1.10;;;6.10;70.00;;;1.39;100.00;94033.78;5011752;28;20045;-49
2024/03/11 00:40:47;;;;;;;2.00;0.88;;;6.10;69.90;;;1.40;100.00;94037.22;5011156;28;20028;-50
2024/03/11 00:43:13;;;;;;;0.98;0.85;;;6.10;69.80;;;1.35;100.00;94030.09;5011984;28;20467;-50
2024/03/11 00:45:40;;;;;;;1.20;1.00;;;6.10;69.90;;;1.32;100.00;94035.03;5011958;28;20442;-49
2024/03/11 00:48:10;;;;;;;1.10;1.00;;;6.10;69.70;;;1.29;100.00;94032.91;5010562;28;20032;-48
2024/03/11 00:50:36;;;;;;;1.83;0.80;;;6.10;69.80;;;1.26;100.00;94030.75;5012135;28;20388;-50
2024/03/11 00:53:01;;;;;;;1.60;0.90;;;6.10;69.70;;;1.20;100.00;94043.00;5011106;28;20032;-48
2024/03/11 00:55:28;;;;;;;1.58;0.80;;;6.00;69.60;;;1.24;100.00;94049.34;5011775;28;20032;-50
2024/03/11 00:57:54;;;;;;;1.20;1.10;;;6.00;69.60;;;1.22;100.00;94050.63;5011004;28;20116;-48
2024/03/11 01:00:22;;;;;;;1.10;0.90;;;6.00;69.60;;;1.19;100.00;94056.34;5011820;28;20033;-49
2024/03/11 01:02:51;;;;;;;1.40;0.70;;;6.00;69.60;;;1.16;100.00;94060.28;5011633;28;20029;-50
2024/03/11 01:05:17;;;;;;;1.67;1.00;;;5.90;70.30;;;1.10;100.00;94062.03;5011178;28;20028;-48
2024/03/11 01:07:45;;;;;;;2.95;0.90;;;5.90;69.50;;;0.97;100.00;94056.31;5010942;28;20438;-52
2024/03/11 01:10:16;;;;;;;0.98;0.77;;;5.90;69.40;;;0.91;100.00;94065.97;5011211;28;20453;-51
2024/03/11 01:12:43;;;;;;;1.42;0.90;;;5.80;69.30;;;0.95;100.00;94066.28;5011486;28;20024;-51
2024/03/11 01:15:10;;;;;;;1.15;0.90;;;5.80;70.20;;;0.84;100.00;94067.94;5011620;28;20525;-50
2024/03/11 01:17:37;;;;;;;1.00;0.90;;;5.80;69.50;;;0.80;100.00;94066.84;5009515;28;20025;-51
2024/03/11 01:20:05;;;;;;;1.65;1.00;;;5.70;69.40;;;0.74;100.00;94070.44;5011498;28;20029;-49
2024/03/11 01:22:31;;;;;;;2.97;1.27;;;5.70;69.50;;;0.80;100.00;94069.47;5010823;28;20468;-48
2024/03/11 01:24:57;;;;;;;0.80;0.80;;;5.70;69.60;;;0.82;100.00;94070.81;5011085;28;20032;-51
2024/03/11 01:27:25;;;;;;;1.42;1.02;;;5.70;69.70;;;0.78;100.00;94082.00;5010823;28;20033;-48
2024/03/11 01:29:51;;;;;;;1.10;1.00;;;5.70;69.60;;;0.61;100.00;94074.97;5010457;28;20029;-52
2024/03/11 01:32:16;;;;;;;1.27;1.05;;;5.60;69.40;;;0.67;100.00;94081.88;5010892;28;20029;-48
2024/03/11 01:34:44;;;;;;;1.83;1.20;;;5.60;69.50;;;0.68;100.00;94080.84;5009940;28;20044;-52
2024/03/11 01:37:11;;;;;;;1.13;1.02;;;5.60;69.60;;;0.65;100.00;94083.13;5010537;28;20467;-48
2024/03/11 01:39:42;;;;;;;2.80;1.05;;;5.50;69.60;;;0.65;100.00;94080.53;5010598;28;20029;-50
2024/03/11 01:42:15;;;;;;;1.48;1.20;;;5.60;69.60;;;0.62;100.00;94081.78;5010198;28;20439;-48
2024/03/11 01:44:50;;;;;;;2.17;1.40;;;5.50;69.70;;;0.60;100.00;94088.31;5010778;28;20056;-49
2024/03/11 01:47:21;;;;;;;1.75;1.23;;;5.50;70.50;;;0.59;100.00;94090.13;5005745;28;20037;-50
2024/03/11 01:49:52;;;;;;;1.83;1.30;;;5.50;69.70;;;0.62;100.00;94088.84;5010780;28;20090;-51
2024/03/11 01:52:30;;;;;;;1.30;1.00;;;5.50;69.90;;;0.62;100.00;94097.50;5008845;28;20040;-48
2024/03/11 01:54:58;;;;;;;1.73;1.00;;;5.50;69.90;;;0.62;100.00;94094.88;5009285;28;20043;-51
2024/03/11 01:57:26;;;;;;;3.35;1.20;;;5.50;69.80;;;0.58;100.00;94099.03;5010091;28;20061;-48
2024/03/11 01:59:54;;;;;;;1.52;1.30;;;5.50;69.80;;;0.59;100.00;94092.75;5028834;28;20064;-49
2024/03/11 02:02:20;;;;;;;1.83;1.42;;;5.40;69.80;;;0.64;100.00;94090.22;5010447;28;20049;-50
2024/03/11 02:04:47;;;;;;;1.98;1.10;;;5.40;69.90;;;0.60;100.00;94088.31;5009421;28;20029;-49
2024/03/11 02:07:15;;;;;;;1.25;1.05;;;5.40;70.00;;;0.63;100.00;94090.47;5010039;28;20024;-52
2024/03/11 02:09:43;;;;;;;1.38;1.20;;;5.40;70.00;;;0.62;100.00;94094.88;5010138;28;20024;-48
2024/03/11 02:12:14;;;;;;;1.50;1.00;;;5.40;70.00;;;0.63;100.00;94098.31;5009527;28;20476;-52
2024/03/11 02:14:40;;;;;;;1.88;0.90;;;5.40;70.00;;;0.62;100.00;94092.25;5010155;28;20045;-50
2024/03/11 02:17:07;;;;;;;1.25;1.13;;;5.50;70.10;;;0.63;100.00;94095.72;5008684;28;20018;-52
2024/03/11 02:19:33;;;;;;;1.15;1.00;;;5.50;70.10;;;0.66;100.00;94096.03;5010414;28;20025;-48
2024/03/11 02:22:02;;;;;;;0.93;0.90;;;5.40;70.10;;;0.62;100.00;94092.25;5009415;28;20553;-48
2024/03/11 02:24:28;;;;;;;1.20;1.10;;;5.50;70.20;;;0.69;100.00;94092.91;5010082;28;20472;-48
2024/03/11 02:26:54;;;;;;;1.63;1.00;;;5.50;70.20;;;0.78;100.00;94088.03;5009676;28;20060;-48
2024/03/11 02:29:21;;;;;;;1.65;1.55;;;5.50;70.30;;;0.83;100.00;94087.34;5009230;28;20606;-48
2024/03/11 02:31:48;;;;;;;1.23;1.13;;;5.50;70.30;;;0.82;100.00;94094.41;5009702;28;20407;-49
2024/03/11 02:34:16;;;;;;;1.80;1.30;;;5.60;70.40;;;0.84;100.00;94092.34;5006860;28;20180;-51
2024/03/11 02:36:50;;;;;;;1.20;1.10;;;5.60;70.40;;;0.84;100.00;94094.16;5014507;28;20041;-48
2024/03/11 02:39:21;;;;;;;1.67;1.10;;;5.60;70.40;;;0.84;100.00;94094.97;5009662;28;20490;-50
2024/03/11 02:41:51;;;;;;;1.58;1.48;;;5.70;70.40;;;0.90;100.00;94098.44;5008594;28;20427;-49
2024/03/11 02:44:17;;;;;;;1.58;1.30;;;5.70;70.50;;;0.92;100.00;94089.31;5009487;28;20115;-48
2024/03/11 02:46:42;;;;;;;1.10;1.00;;;5.70;70.50;;;0.93;100.00;94090.91;5008869;28;20045;-49
2024/03/11 02:49:10;;;;;;;1.23;1.02;;;5.80;70.50;;;0.96;100.00;94097.50;5010777;28;20064;-50
2024/03/11 02:51:38;;;;;;;2.67;0.90;;;5.80;70.40;;;0.96;100.00;94094.88;5009390;28;20021;-48
2024/03/11 02:54:05;;;;;;;1.77;1.00;;;5.80;70.30;;;0.95;100.00;94095.13;5010942;28;20029;-52
2024/03/11 02:56:31;;;;;;;2.50;1.02;;;5.80;70.20;;;0.90;100.00;94101.88;5009654;28;20075;-48
2024/03/11 02:58:58;;;;;;;1.08;0.95;;;5.80;70.00;;;0.82;100.00;94094.41;5008908;28;20029;-48
2024/03/11 03:01:24;;;;;;;2.97;1.45;;;5.80;69.90;;;0.78;100.00;94089.88;5009602;28;20121;-48
2024/03/11 03:03:50;;;;;;;5.07;1.35;;;5.70;69.80;;;0.78;100.00;94097.75;5007720;28;20029;-49
2024/03/11 03:06:16;;;;;;;1.65;1.30;;;5.70;69.90;;;0.70;100.00;94106.81;5011858;28;20386;-49
2024/03/11 03:08:44;;;;;;;1.50;1.40;;;5.60;69.90;;;0.79;100.00;94105.38;5009584;28;20025;-49
2024/03/11 03:11:11;;;;;;;3.75;1.00;;;5.60;70.10;;;0.84;100.00;94102.03;5009073;28;20022;-48
2024/03/11 03:13:37;;;;;;;2.17;1.27;;;5.60;70.20;;;0.84;100.00;94107.28;5010879;28;20033;-51
2024/03/11 03:16:04;;;;;;;1.88;1.20;;;5.60;70.20;;;0.80;100.00;94114.03;5009182;28;20472;-55
2024/03/11 03:18:30;;;;;;;1.40;1.08;;;5.60;70.20;;;0.76;100.00;94111.09;5009563;28;20029;-48
2024/03/11 03:20:55;;;;;;;2.35;1.10;;;5.60;70.20;;;0.73;100.00;94105.56;5006952;28;20384;-48
2024/03/11 03:23:21;;;;;;;2.05;1.30;;;5.60;70.20;;;0.74;100.00;94115.00;5012202;28;20132;-49
2024/03/11 03:25:47;;;;;;;1.42;1.10;;;5.60;70.20;;;0.72;100.00;94117.03;5011016;28;20026;-48
2024/03/11 03:28:13;;;;;;;1.10;1.00;;;5.50;70.20;;;0.65;100.00;94112.75;5008852;28;20044;-48
2024/03/11 03:30:40;;;;;;;3.67;1.20;;;5.50;70.10;;;0.58;100.00;94111.34;5008913;28;20594;-50
2024/03/11 03:33:06;;;;;;;1.10;0.80;;;5.50;70.10;;;0.51;100.00;94118.56;5009398;28;20033;-48
2024/03/11 03:35:35;;;;;;;1.13;1.02;;;5.40;70.00;;;0.50;100.00;94122.19;5009284;28;20029;-49
2024/03/11 03:38:01;;;;;;;0.95;0.90;;;5.40;70.00;;;0.53;100.00;94119.91;5007706;28;20072;-48
2024/03/11 03:40:26;;;;;;;1.50;1.20;;;5.40;70.10;;;0.42;100.00;94126.81;5008748;28;20499;-49
2024/03/11 03:42:54;;;;;;;1.67;1.10;;;5.30;70.00;;;0.41;100.00;94124.44;5009579;28;20021;-48
2024/03/11 03:45:20;;;;;;;4.18;1.20;;;5.30;70.10;;;0.42;100.00;94124.19;5009597;28;20029;-48
2024/03/11 03:47:46;;;;;;;1.67;1.15;;;5.30;70.00;;;0.39;100.00;94123.88;5015111;28;20029;-49
2024/03/11 03:50:14;;;;;;;3.78;1.50;;;5.20;70.00;;;0.36;100.00;94127.75;5012337;28;20056;-49
2024/03/11 03:52:47;;;;;;;2.42;1.58;;;5.20;70.10;;;0.34;100.00;94132.41;5025235;28;20029;-48
2024/03/11 03:55:15;;;;;;;1.95;1.65;;;5.20;70.10;;;0.40;100.00;94128.06;5020708;28;20531;-48
2024/03/11 03:57:44;;;;;;;2.15;1.95;;;5.20;70.30;;;0.50;100.00;94128.22;5023085;28;20029;-48
2024/03/11 04:00:17;;;;;;;1.67;1.42;;;5.20;70.50;;;0.58;100.00;94137.53;5024133;28;20104;-53
2024/03/11 04:02:50;;;;;;;2.67;2.00;;;5.20;70.60;;;0.67;100.00;94138.75;5020275;28;20056;-49
2024/03/11 04:05:21;;;;;;;2.00;1.80;;;5.30;70.80;;;0.72;100.00;94140.63;5016240;28;20523;-50
2024/03/11 04:07:48;;;;;;;1.90;1.50;;;5.30;70.90;;;0.75;100.00;94142.78;5020336;28;20098;-48
2024/03/11 04:10:17;;;;;;;16.27;2.25;;;5.40;71.00;;;0.73;100.00;94137.78;5021754;28;20021;-53
2024/03/11 04:12:47;;;;;;;2.13;1.65;;;5.40;70.90;;;0.73;100.00;94135.16;5019206;28;20051;-48
2024/03/11 04:15:23;;;;;;;2.55;1.50;;;5.40;70.90;;;0.69;100.00;94139.31;5023885;28;20044;-50
2024/03/11 04:17:55;;;;;;;1.85;1.30;;;5.40;70.80;;;0.62;100.00;94131.56;5016307;28;20025;-53
2024/03/11 04:20:27;;;;;;;2.72;1.30;;;5.40;70.60;;;0.58;100.00;94138.34;5014051;28;20113;-52
2024/03/11 04:22:54;;;;;;;4.18;2.63;;;5.40;70.40;;;0.51;100.00;94131.66;5010797;28;20025;-49
2024/03/11 04:25:28;;;;;;;1.95;1.40;;;5.40;70.40;;;0.48;100.00;94135.56;5017661;28;20056;-54
2024/03/11 04:27:56;;;;;;;1.80;1.52;;;5.40;70.30;;;0.44;100.00;94132.63;5014342;28;20041;-51
2024/03/11 04:30:32;;;;;;;2.60;1.80;;;5.30;70.20;;;0.41;100.00;94142.78;5017609;28;20090;-49
2024/03/11 04:32:58;;;;;;;3.42;2.10;;;5.30;70.20;;;0.42;100.00;94137.28;5016349;28;20053;-52
2024/03/11 04:35:34;;;;;;;3.00;1.80;;;5.20;70.20;;;0.42;100.00;94142.53;5018433;28;20509;-52
2024/03/11 04:38:10;;;;;;;2.55;1.90;;;5.20;71.10;;;0.41;100.00;94145.41;5041557;22;20075;-55
2024/03/11 04:40:43;;;;;;;4.05;1.90;;;5.20;70.50;;;0.45;100.00;94147.28;5009938;28;20040;-55
2024/03/11 04:43:10;;;;;;;3.42;2.20;;;5.20;70.50;;;0.51;100.00;94147.38;5030418;28;20017;-58
2024/03/11 04:45:38;;;;;;;3.08;2.25;;;5.20;70.60;;;0.51;100.00;94145.56;5027060;28;20563;-54
2024/03/11 04:48:07;;;;;;;7.13;2.22;;;5.20;70.60;;;0.48;100.00;94143.41;5014288;28;20029;-56
2024/03/11 04:50:34;;;;;;;2.83;2.17;;;5.30;70.60;;;0.45;100.00;94141.25;5005367;28;20039;-52
2024/03/11 04:53:04;;;;;;;2.30;1.83;;;5.30;70.70;;;0.44;100.00;94145.72;4993707;28;20147;-56
2024/03/11 04:55:32;;;;;;;3.08;1.98;;;5.30;70.60;;;0.37;100.00;94141.63;5012544;28;20423;-54
2024/03/11 04:58:00;;;;;;;2.45;1.95;;;5.30;70.50;;;0.38;100.00;94146.66;5000054;28;20079;-54
2024/03/11 05:00:30;;;;;;;2.08;1.80;;;5.30;70.50;;;0.37;100.00;94147.66;5014468;28;20029;-53
2024/03/11 05:02:59;;;;;;;2.20;1.60;;;5.20;70.50;;;0.40;100.00;94151.66;5012417;28;20170;-56
2024/03/11 05:05:27;;;;;;;5.78;2.08;;;5.20;70.40;;;0.30;100.00;94152.25;5007629;28;20491;-56
2024/03/11 05:07:54;;;;;;;2.65;1.90;;;5.20;70.30;;;0.26;100.00;94148.53;5012282;28;20025;-56
2024/03/11 05:10:21;;;;;;;3.63;1.90;;;5.20;70.30;;;0.21;100.00;94156.28;5003807;28;20166;-59
2024/03/11 05:12:47;;;;;;;3.40;2.00;;;5.20;70.30;;;0.22;100.00;94158.69;5004342;28;20459;-57
2024/03/11 05:15:13;;;;;;;8.30;2.08;;;5.20;70.30;;;0.19;100.00;94158.38;4981790;28;20033;-54
2024/03/11 05:17:39;;;;;;;4.72;1.80;;;5.10;70.20;;;0.07;100.00;94163.66;5013130;28;20048;-55
2024/03/11 05:20:11;;;;;;;2.97;1.80;;;5.10;70.20;;;0.01;100.00;94164.56;4995208;28;20029;-57
2024/03/11 05:22:38;;;;;;;3.08;2.08;;;5.00;70.20;;;-0.01;100.00;94170.03;5004070;28;20025;-56
2024/03/11 05:25:06;;;;;;;4.05;1.90;;;5.00;70.20;;;-0.03;100.00;94171.31;5000870;28;20034;-57
2024/03/11 05:27:35;;;;;;;3.70;1.90;;;5.00;70.20;;;-0.07;100.00;94170.16;5001044;28;20022;-55
2024/03/11 05:30:04;;;;;;;39.30;3.05;;;4.90;70.10;;;-0.09;100.00;94177.47;5003120;28;20041;-55
2024/03/11 05:32:31;;;;;;;8.23;2.15;;;4.90;70.10;;;-0.23;100.00;94182.16;5002102;28;20071;-55
2024/03/11 05:34:58;;;;;;;17.67;2.65;;;4.90;70.10;;;-0.21;100.00;94174.09;4999433;28;20030;-54
2024/03/11 05:37:26;;;;;;;16.45;2.60;;;4.80;70.10;;;-0.19;100.00;94185.91;5006932;28;20049;-56
2024/03/11 05:39:56;;;;;;;7.05;2.22;;;4.80;70.10;;;-0.18;100.00;94189.34;5005361;28;20017;-56
2024/03/11 05:42:22;;;;;;;28.77;3.30;;;4.80;70.30;;;-0.22;100.00;94181.13;5007860;28;20025;-59
2024/03/11 05:44:49;;;;;;;8.57;2.30;;;4.80;70.30;;;-0.20;100.00;94188.75;5002597;28;20026;-58
2024/03/11 05:47:15;;;;;;;19.42;3.35;;;4.70;70.30;;;-0.29;100.00;94196.16;4998303;28;20017;-55
2024/03/11 05:49:42;;;;;;;5.80;2.00;;;4.70;70.40;;;-0.29;100.00;94201.41;5007527;28;20026;-57
2024/03/11 05:52:09;;;;;;;3.35;2.25;;;4.70;70.40;;;-0.22;100.00;94207.31;5003464;28;20024;-56
2024/03/11 05:54:38;;;;;;;6.15;2.92;;;4.70;70.50;;;-0.05;100.00;94207.41;4990971;28;20071;-58
2024/03/11 05:57:08;;;;;;;8.00;2.50;;;4.70;70.80;;;-0.07;100.00;94212.06;5009433;28;20112;-55
2024/03/11 05:59:35;;;;;;;26.85;3.03;;;4.80;70.90;;;-0.07;100.00;94217.28;4984533;28;20113;-57
2024/03/11 06:02:01;;;;;;;5.38;2.80;;;4.80;70.70;;;-0.13;100.00;94215.59;4983893;28;20033;-56
2024/03/11 06:04:27;;;;;;;3.35;2.70;;;4.80;70.60;;;-0.20;100.00;94228.81;5000727;28;20039;-58
2024/03/11 06:06:54;;;;;;;3.80;2.45;;;4.80;70.50;;;-0.14;100.00;94227.09;5006528;28;20425;-56
2024/03/11 06:09:21;;;;;;;3.95;2.35;;;4.80;70.50;;;-0.13;100.00;94239.16;5000823;28;20045;-55
2024/03/11 06:11:49;;;;;;;6.00;2.72;;;4.80;70.50;;;-0.11;100.00;94242.34;5001202;28;20021;-58
2024/03/11 06:14:17;;;;;;;6.57;3.92;;;4.80;70.50;;;-0.03;100.00;94248.03;4983199;28;20029;-58
2024/03/11 06:16:45;;;;;;;5.82;3.88;;;4.90;70.70;;;0.08;100.00;94246.41;4999322;28;20021;-56
2024/03/11 06:19:15;;;;;;;10.85;4.45;;;5.00;70.90;;;0.21;100.00;94253.19;5002273;28;20048;-54
2024/03/11 06:21:42;;;;;;;6.55;3.90;;;5.10;71.10;;;0.34;100.00;94247.69;4994695;28;20040;-56
2024/03/11 06:24:12;;;;;;;5.40;3.47;;;5.20;71.10;;;0.47;100.00;94254.50;5004071;28;20025;-59
2024/03/11 06:26:38;;;;;;;3.75;2.65;;;5.40;71.30;;;0.52;100.00;94257.19;5001789;28;20473;-55
2024/03/11 06:29:06;;;;;;;4.93;3.05;;;5.50;71.10;;;0.61;100.00;94258.41;5004249;28;20052;-53
2024/03/11 06:31:37;;;;;;;6.15;3.50;;;5.70;71.10;;;0.72;100.00;94262.00;5004962;28;20021;-55
2024/03/11 06:34:06;;;;;;;6.97;3.95;;;5.80;71.10;;;0.83;100.00;94260.38;4994457;28;20484;-58
2024/03/11 06:36:34;;;;;;;9.40;5.32;;;5.90;71.00;;;0.93;100.00;94266.56;4988999;28;20033;-57
2024/03/11 06:39:00;;;;;;;7.18;4.22;;;6.00;71.00;;;1.04;100.00;94264.94;5009331;28;20144;-56
2024/03/11 06:41:26;;;;;;;6.07;3.78;;;6.20;71.00;;;1.18;100.00;94262.78;5002187;28;20191;-58
2024/03/11 06:43:52;;;;;;;6.75;3.65;;;6.30;71.10;;;1.29;100.00;94267.19;4977343;28;20095;-55
2024/03/11 06:46:22;;;;;;;4.32;3.33;;;6.40;71.10;;;1.35;100.00;94268.84;4996629;28;21224;-55
2024/03/11 06:48:48;;;;;;;6.22;3.65;;;6.50;70.90;;;1.38;100.00;94270.22;4981996;28;20036;-57
2024/03/11 06:51:13;;;;;;;6.63;3.83;;;6.50;70.80;;;1.43;100.00;94283.38;5005408;28;20395;-55
2024/03/11 06:53:40;;;;;;;17.95;5.28;;;6.60;70.80;;;1.48;100.00;94282.69;4998912;28;20022;-57
2024/03/11 06:56:07;;;;;;;7.07;3.90;;;6.60;70.60;;;1.50;100.00;94273.50;4986362;28;20025;-57
2024/03/11 06:58:34;;;;;;;7.10;3.78;;;6.70;70.60;;;1.56;100.00;94283.06;4994804;28;20368;-57
2024/03/11 07:01:00;;;;;;;5.63;3.65;;;6.70;70.60;;;1.61;100.00;94287.59;5001034;28;20036;-53
2024/03/11 07:03:29;;;;;;;6.32;3.83;;;6.80;70.50;;;1.66;100.00;94302.63;4996863;28;20090;-58
2024/03/11 07:05:59;;;;;;;7.13;4.10;;;6.80;70.40;;;1.69;100.00;94296.88;4996493;28;20017;-56
2024/03/11 07:08:30;;;;;;;6.47;3.70;;;6.80;70.40;;;1.81;100.00;94306.25;4995748;28;20068;-56
2024/03/11 07:10:57;;;;;;;6.22;3.63;;;6.90;70.60;;;1.94;100.00;94313.00;4985107;28;20048;-56
2024/03/11 07:13:23;;;;;;;5.60;3.88;;;7.10;70.70;;;2.14;100.00;94316.97;4995127;28;20455;-58
2024/03/11 07:15:49;;;;;;;5.13;3.67;;;7.30;70.80;;;2.37;100.00;94316.75;4996785;28;20025;-55
2024/03/11 07:18:18;;;;;;;4.95;3.10;;;7.50;70.80;;;2.57;100.00;94326.72;4999616;28;20057;-57
2024/03/11 07:20:45;;;;;;;3.53;2.78;;;7.70;70.80;;;2.70;100.00;94326.34;5000266;28;20051;-58
2024/03/11 07:23:12;;;;;;;3.97;2.97;;;7.90;70.50;;;2.90;100.00;94335.50;5006052;28;20025;-58
2024/03/11 07:25:39;;;;;;;2.92;2.60;;;8.20;70.40;;;3.14;100.00;94328.94;5001972;28;20082;-55
2024/03/11 07:28:06;;;;;;;5.28;2.70;;;8.50;71.10;;;3.42;100.00;94338.41;5001255;28;20086;-54
2024/03/11 07:30:33;;;;;;;2.42;2.22;;;8.80;70.10;;;3.72;100.00;94339.69;5010111;28;20562;-57
2024/03/11 07:33:19;;;;;;;3.38;2.33;;;9.20;70.10;;;4.09;100.00;94346.81;4980176;28;20021;-55
2024/03/11 07:35:46;;;;;;;1.75;1.63;;;9.60;69.90;;;4.45;100.00;94347.00;5007250;28;20037;-56
2024/03/11 07:38:14;;;;;;;2.45;1.80;;;10.00;69.70;;;4.76;100.00;94346.09;4991312;28;20033;-55
2024/03/11 07:40:40;;;;;;;2.05;1.85;;;10.40;69.60;;;5.05;100.00;94349.13;5007282;28;20108;-56
2024/03/11 07:43:07;;;;;;;1.73;1.63;;;10.80;69.50;;;5.41;100.00;94353.69;4999189;28;20041;-57
2024/03/11 07:45:35;;;;;;;2.28;1.63;;;11.10;69.60;;;5.77;100.00;94362.47;4980822;28;20025;-57
2024/03/11 07:48:02;;;;;;;2.53;1.42;;;11.50;69.40;;;6.10;100.00;94365.66;5001231;28;20049;-54
2024/03/11 07:50:29;;;;;;;1.40;1.30;;;11.90;69.10;;;6.34;100.00;94369.34;5001598;28;20025;-56
2024/03/11 07:52:55;;;;;;;1.75;1.27;;;12.20;68.80;;;6.50;100.00;94375.38;4987789;28;20053;-58
2024/03/11 07:55:23;;;;;;;1.52;1.42;;;12.60;68.20;;;6.76;100.00;94375.31;5001534;28;20030;-57
2024/03/11 07:57:54;;;;;;;1.30;1.20;;;12.80;67.70;;;6.87;100.00;94374.22;5000206;28;20086;-59
2024/03/11 08:00:29;;;;;;;1.55;1.10;;;13.10;67.40;;;7.15;100.00;94376.22;5001192;28;20053;-58
2024/03/11 08:03:00;;;;;;;1.52;1.00;;;13.50;67.20;;;7.42;100.00;94380.31;5006970;28;20396;-58
2024/03/11 08:05:28;;;;;;;1.00;0.77;;;13.80;66.60;;;7.64;99.31;94386.03;5006310;28;20040;-59
2024/03/11 08:07:59;;;;;;;0.98;0.90;;;14.00;65.90;;;7.99;100.00;94381.56;5008815;28;20035;-59
2024/03/11 08:10:25;;;;;;;0.98;0.90;;;14.30;65.50;;;8.22;91.89;94385.34;5003668;28;20021;-59
2024/03/11 08:12:52;;;;;;;1.52;1.00;;;14.60;65.40;;;8.46;90.49;94380.13;5002633;28;20044;-57
2024/03/11 08:15:20;;;;;;;0.98;0.80;;;14.80;64.80;;;8.77;88.11;94385.13;5001093;28;20034;-59
2024/03/11 08:17:49;;;;;;;1.08;0.80;;;15.10;64.70;;;9.08;85.62;94390.09;5006864;28;20041;-54
2024/03/11 08:20:20;;;;;;;1.05;0.95;;;15.40;64.20;;;9.20;80.50;94390.50;4997740;28;20033;-59
2024/03/11 08:22:55;;;;;;;1.00;0.90;;;15.70;63.40;;;9.37;80.46;94388.16;5011249;28;20113;-57
2024/03/11 08:25:31;;;;;;;1.52;1.10;;;16.00;62.40;;;9.59;77.92;94386.78;4984281;28;20034;-54
2024/03/11 08:27:57;;;;;;;0.80;0.80;;;16.20;61.20;;;9.82;76.43;94396.59;5008161;28;20024;-57
2024/03/11 08:30:30;;;;;;;0.88;0.88;;;16.40;60.40;;;10.06;75.59;94393.03;5012225;28;20527;-58
2024/03/11 08:32:57;;;;;;;1.23;0.82;;;16.60;59.80;;;10.17;73.98;94389.13;5002867;28;20021;-58
2024/03/11 08:35:24;;;;;;;1.73;1.33;;;16.80;59.50;;;10.28;72.51;94384.47;5003163;28;20128;-59
2024/03/11 08:37:50;;;;;;;1.23;1.10;;;17.10;59.00;;;10.55;70.54;94387.19;4999908;28;20539;-58
2024/03/11 08:40:27;;;;;;;2.20;1.30;;;17.30;58.50;;;10.78;69.51;94390.81;5008986;28;20025;-58
2024/03/11 08:42:56;;;;;;;2.55;1.80;;;17.50;57.70;;;10.96;70.33;94381.13;4999570;28;20025;-59
2024/03/11 08:45:22;;;;;;;2.15;1.52;;;17.70;57.30;;;11.23;68.88;94395.56;4978499;28;20018;-56
2024/03/11 08:47:49;;;;;;;1.83;1.40;;;17.90;56.80;;;11.58;67.92;94389.47;5001314;28;20087;-58
2024/03/11 08:50:16;;;;;;;2.22;1.52;;;18.10;56.30;;;11.80;65.82;94388.75;4996625;28;20022;-58
2024/03/11 08:52:46;;;;;;;2.20;1.48;;;18.30;55.70;;;12.02;68.08;94389.91;5004842;28;20048;-59
2024/03/11 08:55:16;;;;;;;2.30;1.60;;;18.50;55.10;;;12.24;63.79;94391.78;4999627;28;20521;-58
2024/03/11 08:57:46;;;;;;;2.20;1.70;;;18.70;54.60;;;12.48;64.51;94396.81;4998432;28;20026;-59
2024/03/11 09:00:15;;;;;;;2.33;1.65;;;18.90;54.40;;;12.69;62.82;94400.56;4997741;28;20573;-56
2024/03/11 09:02:44;;;;;;;1.60;1.48;;;19.10;53.80;;;12.76;64.61;94400.13;5000216;28;20022;-55
2024/03/11 09:05:12;;;;;;;2.00;1.60;;;19.30;53.60;;;12.79;62.67;94388.06;5004651;28;20029;-58
2024/03/11 09:07:40;;;;;;;1.40;1.23;;;19.50;53.00;;;12.83;61.95;94395.13;4997366;28;20100;-59
2024/03/11 09:10:09;;;;;;;3.50;1.20;;;19.60;52.70;;;12.86;62.18;94399.06;4999557;28;20155;-57
2024/03/11 09:12:37;;;;;;;1.30;1.20;;;19.80;52.20;;;12.99;62.01;94408.88;5003217;28;20017;-57
2024/03/11 09:15:12;;;;;;;1.58;1.10;;;19.90;51.70;;;13.09;60.81;94413.94;4999072;28;20431;-57
2024/03/11 09:17:42;;;;;;;1.58;0.80;;;20.10;51.40;;;13.13;59.03;94406.09;4999132;28;20071;-58
2024/03/11 09:20:15;;;;;;;1.13;0.90;;;20.20;50.80;;;13.27;57.22;94414.84;4996136;28;20365;-58
2024/03/11 09:22:58;;;;;;;1.02;0.90;;;20.30;49.90;;;13.53;59.92;94419.47;4988609;28;20544;-57
2024/03/11 09:25:26;;;;;;;2.22;1.17;;;20.50;49.80;;;13.60;58.75;94414.44;5009245;28;20052;-58
2024/03/11 09:28:00;;;;;;;1.45;1.20;;;20.70;49.80;;;13.56;61.32;94418.84;5016355;28;20056;-57
2024/03/11 09:30:29;;;;;;;0.90;0.80;;;20.80;49.60;;;13.75;57.45;94419.38;5015612;28;20021;-58
2024/03/11 09:32:56;;;;;;;1.00;0.90;;;21.00;48.90;;;13.99;56.95;94416.25;5013136;28;20060;-59
2024/03/11 09:35:22;;;;;;;0.80;0.80;;;21.10;48.80;;;14.23;53.77;94415.03;5014895;28;20135;-58
2024/03/11 09:37:53;;;;;;;2.17;0.82;;;21.30;48.20;;;14.34;52.96;94421.63;5014441;28;20119;-58
2024/03/11 09:40:23;;;;;;;0.95;0.85;;;21.50;47.50;;;14.54;52.57;94410.28;5010479;28;20198;-58
2024/03/11 09:42:54;;;;;;;0.85;0.80;;;21.60;47.00;;;14.69;53.55;94424.28;4997275;28;20932;-59
2024/03/11 09:45:26;;;;;;;1.63;1.03;;;21.80;46.50;;;14.79;52.52;94418.59;5017520;28;20388;-60
2024/03/11 09:47:56;;;;;;;0.93;0.88;;;22.00;46.30;;;14.98;52.67;94419.03;5009503;28;20025;-60
2024/03/11 09:50:26;;;;;;;1.00;0.90;;;22.20;46.00;;;15.13;54.44;94423.06;5019310;28;20267;-59
2024/03/11 09:53:13;;;;;;;0.70;0.70;;;22.40;46.20;;;15.07;50.48;94428.94;4996261;28;20021;-59
2024/03/11 09:55:43;;;;;;;0.85;0.85;;;22.50;44.90;;;15.21;50.50;94433.00;5004659;28;20036;-60
2024/03/11 09:58:15;;;;;;;0.80;0.80;;;22.50;44.80;;;14.94;52.48;94426.13;5008399;28;20056;-60
2024/03/11 10:00:55;;;;;;;0.70;0.70;;;22.70;44.10;;;15.06;50.59;94436.19;5007669;28;20021;-57
2024/03/11 10:03:24;;;;;;;1.10;1.00;;;22.70;43.50;;;15.30;49.38;94430.28;5016200;28;20107;-60
2024/03/11 10:06:04;;;;;;;1.10;0.90;;;22.90;43.50;;;15.45;49.89;94431.66;5011676;28;20074;-59
2024/03/11 10:08:31;;;;;;;0.95;0.90;;;23.00;42.70;;;15.59;50.42;94426.03;5017607;28;20023;-57
2024/03/11 10:11:24;;;;;;;0.77;0.75;;;23.10;42.90;;;15.61;49.38;94429.97;5017299;28;20051;-60
2024/03/11 10:13:56;;;;;;;1.50;1.20;;;23.30;42.40;;;15.78;50.30;94437.16;5008385;28;20030;-58
2024/03/11 10:16:27;;;;;;;2.92;1.70;;;23.40;42.20;;;15.77;50.49;94437.50;5012335;28;20529;-59
2024/03/11 10:19:11;;;;;;;0.70;0.70;;;23.50;41.90;;;15.72;48.11;94439.25;5009678;28;20029;-58
2024/03/11 10:21:39;;;;;;;0.98;0.88;;;23.60;41.20;;;15.81;49.81;94433.84;5010275;28;20108;-60
2024/03/11 10:24:08;;;;;;;2.05;0.98;;;23.70;41.10;;;15.85;48.81;94442.81;5011140;28;20048;-58
2024/03/11 10:26:42;;;;;;;1.50;0.80;;;23.80;40.60;;;16.12;46.66;94446.91;4995315;28;20387;-58
2024/03/11 10:29:12;;;;;;;1.40;0.82;;;23.90;40.10;;;16.05;48.84;94443.19;5006843;28;20021;-60